Time;durP1;ratioP1;P1;durP2;ratioP2;P2;SDS_P1;SDS_P2;PMS_P1;PMS_P2;Temp;Humidity;BMP_temperature;BMP_pressure;BME280_temperature;BME280_humidity;BME280_pressure;Samples;Min_cycle;Max_cycle;Signal;HPM_P1;HPM_P2
2022/02/06 00:01:41;;;;;;;11.85;4.07;;;;;;;4.06;73.53;99311.00;2618650;54;20082;-62
2022/02/06 00:04:14;;;;;;;5.13;2.70;;;;;;;4.10;73.37;99296.66;2622153;54;20035;-63
2022/02/06 00:06:43;;;;;;;9.25;3.35;;;;;;;4.12;73.61;99300.00;2622703;54;20050;-64
2022/02/06 00:09:13;;;;;;;6.97;2.55;;;;;;;4.09;73.78;99294.19;2622562;54;20078;-63
2022/02/06 00:11:42;;;;;;;10.25;3.47;;;;;;;4.13;73.33;99292.97;2622388;54;20094;-63
2022/02/06 00:14:12;;;;;;;9.32;3.30;;;;;;;4.14;73.53;99299.84;2621554;54;20083;-63
2022/02/06 00:16:41;;;;;;;11.70;3.65;;;;;;;4.16;73.74;99296.13;2622370;39;20561;-62
2022/02/06 00:19:13;;;;;;;7.97;2.90;;;;;;;4.22;73.24;99295.56;2620193;47;20046;-62
2022/02/06 00:21:43;;;;;;;9.48;2.50;;;;;;;4.25;73.15;99296.25;2622002;46;20050;-62
2022/02/06 00:24:22;;;;;;;11.45;2.95;;;;;;;4.25;73.40;99288.41;2622203;54;20046;-62
2022/02/06 00:27:01;;;;;;;9.40;2.80;;;;;;;4.26;73.14;99287.44;2620893;54;20038;-62
2022/02/06 00:29:41;;;;;;;6.68;2.60;;;;;;;4.26;73.43;99290.88;2619667;46;20041;-62
2022/02/06 00:32:24;;;;;;;12.07;3.03;;;;;;;4.28;73.57;99294.16;2619694;54;20082;-62
2022/02/06 00:40:42;;;;;;;8.57;2.15;;;;;;;4.37;72.81;99295.13;2619070;54;20090;-63
2022/02/06 00:43:11;;;;;;;9.48;2.75;;;;;;;4.37;72.97;99276.81;2618911;54;20046;-63
2022/02/06 00:45:41;;;;;;;5.90;2.88;;;;;;;4.35;72.75;99283.97;2619256;39;20492;-63
2022/02/06 00:48:11;;;;;;;13.05;2.95;;;;;;;4.36;73.33;99281.19;2619044;54;20031;-62
2022/02/06 00:50:46;;;;;;;8.65;2.65;;;;;;;4.37;72.64;99280.25;2621062;54;20030;-63
2022/02/06 00:53:18;;;;;;;6.28;2.65;;;;;;;4.42;73.12;99279.81;2621408;54;20026;-63
2022/02/06 00:55:48;;;;;;;6.72;2.50;;;;;;;4.40;72.88;99274.69;2619034;54;20038;-62
2022/02/06 00:58:17;;;;;;;12.07;2.75;;;;;;;4.40;72.95;99273.88;2619410;54;20050;-62
2022/02/06 01:00:48;;;;;;;9.80;2.65;;;;;;;4.43;72.82;99286.69;2619032;54;20086;-62
2022/02/06 01:03:18;;;;;;;7.60;2.65;;;;;;;4.40;72.61;99273.88;2618968;39;20426;-62
2022/02/06 01:06:04;;;;;;;9.07;2.80;;;;;;;4.39;72.69;99259.97;2618690;54;20037;-63
2022/02/06 01:08:33;;;;;;;11.35;2.53;;;;;;;4.41;73.17;99254.63;2618869;54;20063;-62
2022/02/06 01:11:08;;;;;;;10.90;2.78;;;;;;;4.40;72.67;99245.91;2618783;54;20034;-62
2022/02/06 01:13:46;;;;;;;7.55;3.08;;;;;;;4.38;72.96;99242.63;2619110;54;20058;-62
2022/02/06 01:16:20;;;;;;;6.25;2.72;;;;;;;4.41;72.60;99238.91;2618732;54;20066;-63
2022/02/06 01:18:55;;;;;;;11.18;2.60;;;;;;;4.38;72.53;99234.78;2618561;54;20078;-62
2022/02/06 01:21:41;;;;;;;10.57;3.10;;;;;;;4.36;72.94;99236.69;2618712;54;20078;-62
2022/02/06 01:24:14;;;;;;;6.10;2.60;;;;;;;4.38;72.94;99224.31;2618554;54;20558;-63
2022/02/06 01:26:48;;;;;;;12.10;2.60;;;;;;;4.40;72.90;99224.97;2618667;54;20581;-63
2022/02/06 01:29:30;;;;;;;15.95;2.65;;;;;;;4.39;72.88;99233.78;2618912;54;20597;-63
2022/02/06 01:32:03;;;;;;;9.45;2.60;;;;;;;4.41;72.74;99239.72;2618755;54;20074;-62
2022/02/06 01:34:40;;;;;;;6.93;2.03;;;;;;;4.41;72.73;99216.16;2618457;54;20039;-63
2022/02/06 01:37:21;;;;;;;10.45;2.35;;;;;;;4.41;72.75;99220.59;2619209;39;20427;-63
2022/02/06 01:40:06;;;;;;;8.82;2.53;;;;;;;4.43;72.91;99208.16;2618942;54;20604;-62
2022/02/06 01:42:41;;;;;;;10.13;2.72;;;;;;;4.46;72.64;99211.31;2618693;54;20045;-62
2022/02/06 02:01:58;;;;;;;5.80;2.05;;;;;;;4.50;72.37;99187.47;2621968;54;20548;-62
2022/02/06 02:04:38;;;;;;;7.55;2.50;;;;;;;4.53;72.44;99168.84;2621069;54;20086;-63
2022/02/06 02:15:52;;;;;;;10.38;3.08;;;;;;;4.59;72.31;99156.00;2618576;54;20034;-63
2022/02/06 02:18:50;;;;;;;10.40;3.03;;;;;;;4.59;72.36;99148.16;2618576;54;20109;-63
2022/02/06 02:21:55;;;;;;;9.27;2.30;;;;;;;4.60;71.77;99146.34;2618909;54;20034;-62
2022/02/06 02:24:41;;;;;;;10.02;2.33;;;;;;;4.60;71.95;99148.97;2618633;54;20570;-62
2022/02/06 02:27:21;;;;;;;5.43;2.20;;;;;;;4.63;71.86;99146.88;2618927;54;20034;-62
2022/02/06 02:33:14;;;;;;;7.93;2.42;;;;;;;4.65;71.93;99120.53;2618708;54;20062;-62
2022/02/06 02:46:38;;;;;;;8.10;2.20;;;;;;;4.63;72.10;99093.69;2617458;47;20560;-62
2022/02/06 02:49:14;;;;;;;12.30;2.55;;;;;;;4.64;72.53;99097.94;2618061;54;20550;-63
2022/02/06 02:51:46;;;;;;;9.45;2.42;;;;;;;4.67;72.00;99089.81;2618251;54;20046;-64
2022/02/06 02:54:24;;;;;;;5.38;2.47;;;;;;;4.68;72.31;99084.41;2617788;54;20038;-63
2022/02/06 02:57:04;;;;;;;11.52;2.58;;;;;;;4.71;72.06;99070.22;2617974;54;20094;-63
2022/02/06 02:59:45;;;;;;;11.02;2.33;;;;;;;4.68;72.22;99086.22;2619431;54;20042;-63
2022/02/06 03:02:15;;;;;;;6.78;2.88;;;;;;;4.67;72.41;99081.94;2620202;54;20041;-61
2022/02/06 03:04:50;;;;;;;6.65;2.17;;;;;;;4.65;72.26;99089.13;2620066;39;20435;-64
2022/02/06 03:07:20;;;;;;;9.95;2.35;;;;;;;4.69;72.14;99080.84;2618177;54;20043;-65
2022/02/06 03:09:52;;;;;;;5.35;2.10;;;;;;;4.70;72.32;99058.09;2618675;54;20035;-62
2022/02/06 03:12:26;;;;;;;8.25;2.47;;;;;;;4.71;71.97;99067.59;2618713;54;20035;-63
2022/02/06 03:15:03;;;;;;;7.60;2.30;;;;;;;4.71;72.19;99050.06;2618273;54;20038;-62
2022/02/06 03:17:38;;;;;;;8.43;2.33;;;;;;;4.75;72.56;99049.78;2619341;39;20433;-62
2022/02/06 03:20:11;;;;;;;7.43;2.60;;;;;;;4.78;72.55;99042.47;2618370;54;20043;-61
2022/02/06 03:22:49;;;;;;;7.63;2.00;;;;;;;4.77;72.25;99047.81;2618673;54;20078;-63
2022/02/06 03:25:24;;;;;;;9.98;2.28;;;;;;;4.80;72.37;99053.59;2618337;54;20326;-63
2022/02/06 03:27:54;;;;;;;8.13;2.10;;;;;;;4.81;71.94;99051.78;2619486;54;20562;-63
2022/02/06 03:30:29;;;;;;;6.97;2.47;;;;;;;4.84;72.40;99048.88;2624012;54;20034;-64
2022/02/06 03:32:59;;;;;;;8.13;2.75;;;;;;;4.80;72.30;99039.69;2619487;54;20082;-62
2022/02/06 03:35:28;;;;;;;8.23;2.58;;;;;;;4.84;71.92;99048.88;2618514;54;20122;-62
2022/02/06 03:37:58;;;;;;;11.82;2.10;;;;;;;4.81;71.94;99042.13;2618645;54;20069;-62
2022/02/06 03:40:36;;;;;;;11.48;2.55;;;;;;;4.82;72.35;99033.34;2618542;54;20569;-62
2022/02/06 03:43:10;;;;;;;10.02;2.10;;;;;;;4.87;72.06;99043.34;2618882;54;20027;-62
2022/02/06 03:45:44;;;;;;;10.98;2.33;;;;;;;4.84;72.18;99028.75;2618455;54;20046;-62
2022/02/06 03:48:19;;;;;;;5.88;2.13;;;;;;;4.88;71.78;99040.56;2618722;54;20038;-63
2022/02/06 03:50:52;;;;;;;7.63;2.17;;;;;;;4.88;71.69;99035.34;2618571;54;20050;-63
2022/02/06 03:53:26;;;;;;;10.38;1.98;;;;;;;4.85;71.95;99038.25;2618547;54;20027;-62
2022/02/06 03:55:59;;;;;;;8.55;1.92;;;;;;;4.83;71.61;99029.72;2617746;47;20056;-62
2022/02/06 03:58:29;;;;;;;4.90;1.77;;;;;;;4.81;71.95;99018.56;2618345;54;20121;-62
2022/02/06 04:00:58;;;;;;;7.25;2.38;;;;;;;4.83;71.99;99021.88;2619316;31;20515;-63
2022/02/06 04:03:28;;;;;;;6.38;2.05;;;;;;;4.88;71.72;99017.00;2618454;54;20033;-61
2022/02/06 04:05:58;;;;;;;9.57;2.47;;;;;;;4.89;72.06;99029.13;2618246;54;20123;-63
2022/02/06 04:08:29;;;;;;;7.30;2.20;;;;;;;4.89;71.93;99018.63;2621499;54;20051;-63
2022/02/06 04:11:05;;;;;;;9.07;2.85;;;;;;;4.88;72.05;99014.38;2620660;54;20090;-62
2022/02/06 04:13:39;;;;;;;8.68;2.97;;;;;;;4.89;72.29;99013.41;2619185;31;20515;-62
2022/02/06 04:16:14;;;;;;;10.23;2.22;;;;;;;4.89;71.65;98996.84;2618161;54;20155;-63
2022/02/06 04:18:50;;;;;;;9.75;2.17;;;;;;;4.90;71.67;99012.44;2618298;48;20092;-63
2022/02/06 04:21:19;;;;;;;5.85;2.17;;;;;;;4.86;71.71;98997.19;2618272;54;20113;-62
2022/02/06 04:23:49;;;;;;;4.57;2.13;;;;;;;4.84;71.74;98994.69;2618531;54;20030;-62
2022/02/06 04:26:21;;;;;;;9.52;2.47;;;;;;;4.85;72.27;99004.19;2618196;54;20052;-62
2022/02/06 04:28:51;;;;;;;13.82;2.30;;;;;;;4.84;72.30;98975.53;2618424;54;20034;-64
2022/02/06 04:31:20;;;;;;;10.43;2.35;;;;;;;4.83;72.13;98987.81;2618361;54;20051;-63
2022/02/06 04:33:50;;;;;;;7.35;2.78;;;;;;;4.84;72.01;98978.16;2618066;54;20566;-63
2022/02/06 04:36:23;;;;;;;7.05;2.33;;;;;;;4.81;72.32;98983.69;2618731;39;20463;-63
2022/02/06 04:39:05;;;;;;;8.27;2.05;;;;;;;4.85;72.34;98982.41;2617835;54;20082;-63
2022/02/06 04:41:52;;;;;;;4.63;1.90;;;;;;;4.84;72.27;98984.22;2618331;54;20042;-63
2022/02/06 04:50:26;;;;;;;7.78;2.25;;;;;;;4.85;71.90;98982.41;2618156;54;20043;-62
2022/02/06 05:15:01;;;;;;;10.25;2.45;;;;;;;4.73;71.91;98937.31;2624329;54;20586;-63
2022/02/06 05:17:54;;;;;;;10.68;2.55;;;;;;;4.74;72.00;98935.53;2623359;51;20030;-62
2022/02/06 05:20:51;;;;;;;7.35;2.20;;;;;;;4.71;72.19;98934.03;2623974;39;20176;-63
2022/02/06 05:29:01;;;;;;;5.97;1.92;;;;;;;4.68;72.34;98914.19;2623111;47;20553;-62
2022/02/06 05:31:43;;;;;;;5.30;2.88;;;;;;;4.69;72.14;98915.00;2624148;54;20038;-62
2022/02/06 05:34:12;;;;;;;8.70;2.10;;;;;;;4.74;72.11;98909.34;2620837;54;20034;-62
2022/02/06 05:36:42;;;;;;;8.30;2.00;;;;;;;4.73;71.88;98908.50;2620096;54;20115;-62
2022/02/06 05:39:12;;;;;;;5.80;1.77;;;;;;;4.78;72.14;98901.03;2619203;54;20046;-63
2022/02/06 05:41:41;;;;;;;9.73;2.15;;;;;;;4.77;71.91;98907.22;2618844;54;20098;-63
2022/02/06 05:44:11;;;;;;;6.20;2.08;;;;;;;4.77;72.13;98883.66;2618975;54;20030;-62
2022/02/06 05:46:43;;;;;;;9.10;2.28;;;;;;;4.80;72.16;98904.31;2619189;54;20558;-62
2022/02/06 05:49:13;;;;;;;6.78;2.00;;;;;;;4.77;71.97;98896.75;2618969;54;20546;-62
2022/02/06 05:51:43;;;;;;;7.43;1.90;;;;;;;4.82;72.48;98893.69;2618906;54;20163;-63
2022/02/06 05:54:13;;;;;;;8.02;1.90;;;;;;;4.83;72.35;98890.91;2618827;54;20567;-62
2022/02/06 05:56:43;;;;;;;7.53;2.15;;;;;;;4.84;71.90;98897.78;2619229;54;20039;-62
2022/02/06 05:59:13;;;;;;;11.00;2.53;;;;;;;4.83;72.02;98877.81;2618874;54;20546;-63
2022/02/06 06:01:45;;;;;;;5.60;1.90;;;;;;;4.89;72.68;98882.41;2618770;54;20054;-63
2022/02/06 06:04:14;;;;;;;9.65;2.22;;;;;;;4.89;72.25;98878.97;2618732;39;20251;-63
2022/02/06 06:06:44;;;;;;;8.82;1.90;;;;;;;4.87;72.68;98867.84;2620642;54;20042;-64
2022/02/06 06:09:13;;;;;;;8.60;2.00;;;;;;;4.86;72.69;98853.94;2623788;54;20592;-65
2022/02/06 06:11:43;;;;;;;7.85;2.20;;;;;;;4.90;72.37;98857.06;2619805;54;20093;-63
2022/02/06 06:14:12;;;;;;;9.55;2.13;;;;;;;4.89;72.46;98850.97;2620706;54;20038;-63
2022/02/06 06:16:44;;;;;;;8.63;2.00;;;;;;;4.90;72.81;98852.66;2621247;54;20617;-63
2022/02/06 06:19:14;;;;;;;5.45;2.45;;;;;;;4.92;72.93;98847.25;2620636;54;20026;-62
2022/02/06 06:21:46;;;;;;;8.80;2.20;;;;;;;4.94;73.10;98843.50;2619092;54;20026;-63
2022/02/06 06:24:18;;;;;;;5.57;1.70;;;;;;;4.99;72.46;98843.03;2619182;54;20038;-63
2022/02/06 06:26:48;;;;;;;6.07;1.80;;;;;;;4.94;72.31;98830.41;2619153;54;20038;-63
2022/02/06 06:29:17;;;;;;;8.85;1.92;;;;;;;4.93;72.60;98827.91;2619459;54;20042;-66
2022/02/06 06:31:50;;;;;;;5.72;2.17;;;;;;;4.98;72.73;98820.44;2619820;39;20129;-64
2022/02/06 06:34:19;;;;;;;6.68;1.73;;;;;;;5.00;72.32;98817.66;2619490;54;20089;-62
2022/02/06 06:36:50;;;;;;;8.95;2.42;;;;;;;4.97;72.21;98816.97;2620063;54;20077;-63
2022/02/06 06:39:30;;;;;;;7.07;2.03;;;;;;;4.99;72.43;98822.06;2621044;54;20078;-61
2022/02/06 06:42:02;;;;;;;6.60;1.90;;;;;;;4.99;71.94;98808.97;2621009;54;20030;-63
2022/02/06 06:44:32;;;;;;;7.90;2.15;;;;;;;4.97;72.19;98821.38;2620856;54;20023;-67
2022/02/06 06:47:05;;;;;;;10.18;1.90;;;;;;;5.01;72.06;98817.47;2620378;54;20026;-61
2022/02/06 06:49:35;;;;;;;9.35;1.95;;;;;;;4.99;71.69;98801.09;2619400;47;20026;-64
2022/02/06 06:52:07;;;;;;;11.35;2.80;;;;;;;5.00;71.62;98804.56;2619840;54;20039;-62
2022/02/06 06:54:41;;;;;;;5.13;2.05;;;;;;;4.97;71.75;98797.81;2619255;54;20050;-63
2022/02/06 06:57:18;;;;;;;4.93;2.28;;;;;;;4.99;72.01;98803.72;2619031;54;20046;-63
2022/02/06 07:02:35;;;;;;;12.38;2.53;;;;;;;5.03;71.54;98794.56;2618464;54;20123;-62
2022/02/06 07:05:07;;;;;;;6.50;1.83;;;;;;;5.08;71.63;98791.47;2618443;54;20046;-64
2022/02/06 07:07:36;;;;;;;8.35;1.77;;;;;;;5.05;71.71;98792.59;2618980;54;20039;-64
2022/02/06 07:10:07;;;;;;;6.00;1.83;;;;;;;5.04;71.66;98798.03;2618796;54;20026;-62
2022/02/06 07:12:37;;;;;;;7.18;1.70;;;;;;;5.08;71.83;98787.06;2618862;54;20105;-64
2022/02/06 07:15:07;;;;;;;9.77;2.33;;;;;;;5.08;71.67;98784.44;2618647;54;20026;-63
2022/02/06 07:17:39;;;;;;;7.05;2.20;;;;;;;5.13;71.44;98763.00;2618593;54;20038;-65
2022/02/06 07:20:10;;;;;;;8.82;2.35;;;;;;;5.16;71.87;98773.97;2618344;47;20039;-64
2022/02/06 07:22:40;;;;;;;7.95;1.58;;;;;;;5.19;71.47;98765.00;2618479;54;20031;-62
2022/02/06 07:25:10;;;;;;;8.20;2.25;;;;;;;5.19;71.61;98768.44;2618486;54;20041;-63
2022/02/06 07:27:44;;;;;;;5.80;1.95;;;;;;;5.18;71.71;98764.19;2618598;54;20072;-62
2022/02/06 07:30:16;;;;;;;3.63;1.63;;;;;;;5.16;71.75;98767.94;2618079;47;20078;-63
2022/02/06 07:32:48;;;;;;;5.97;2.05;;;;;;;5.14;72.37;98773.34;2618566;54;20044;-63
2022/02/06 07:35:18;;;;;;;7.15;2.35;;;;;;;5.16;72.10;98773.16;2618196;54;20047;-63
2022/02/06 07:37:54;;;;;;;5.90;1.63;;;;;;;5.19;72.09;98776.31;2618142;47;20034;-64
2022/02/06 07:40:25;;;;;;;5.97;2.20;;;;;;;5.19;72.07;98775.47;2618701;54;20034;-64
2022/02/06 07:42:55;;;;;;;6.45;1.88;;;;;;;5.15;71.91;98768.91;2617880;54;20042;-63
2022/02/06 07:45:32;;;;;;;6.18;1.60;;;;;;;5.20;71.72;98751.72;2618663;54;20037;-63
2022/02/06 07:48:05;;;;;;;7.18;2.22;;;;;;;5.19;71.77;98750.09;2618767;54;20034;-63
2022/02/06 07:50:35;;;;;;;5.30;1.77;;;;;;;5.22;72.04;98751.56;2617828;54;20034;-62
2022/02/06 07:53:05;;;;;;;10.05;2.30;;;;;;;5.24;71.89;98752.22;2618056;54;20030;-62
2022/02/06 07:55:34;;;;;;;5.43;2.17;;;;;;;5.27;71.99;98751.91;2618471;54;20133;-62
2022/02/06 07:58:04;;;;;;;7.28;2.58;;;;;;;5.30;72.00;98746.34;2618020;47;20043;-62
2022/02/06 08:00:34;;;;;;;10.93;3.17;;;;;;;5.28;72.24;98735.19;2617987;54;20056;-62
2022/02/06 08:03:06;;;;;;;4.15;1.55;;;;;;;5.24;72.98;98723.41;2618709;54;20950;-61
2022/02/06 08:05:36;;;;;;;4.40;1.95;;;;;;;5.26;73.55;98724.03;2617319;54;20082;-62
2022/02/06 08:08:12;;;;;;;9.60;2.60;;;;;;;5.25;73.66;98708.50;2617621;54;20055;-62
2022/02/06 08:10:42;;;;;;;6.43;1.60;;;;;;;5.22;74.09;98712.25;2617982;54;20039;-62
2022/02/06 08:13:21;;;;;;;3.50;1.55;;;;;;;5.18;74.52;98709.16;2618209;54;20117;-63
2022/02/06 08:15:50;;;;;;;6.47;2.03;;;;;;;5.17;74.92;98693.56;2618182;54;20050;-63
2022/02/06 08:18:23;;;;;;;9.93;3.95;;;;;;;5.20;74.94;98693.25;2617411;54;20034;-62
2022/02/06 08:20:52;;;;;;;5.07;2.30;;;;;;;5.17;75.46;98711.91;2618218;54;20057;-61
2022/02/06 08:23:44;;;;;;;11.35;1.95;;;;;;;5.19;75.67;98692.44;2618199;54;20061;-63
2022/02/06 08:26:14;;;;;;;6.20;2.15;;;;;;;5.17;75.52;98698.81;2618998;54;20035;-62
2022/02/06 08:28:44;;;;;;;7.00;2.05;;;;;;;5.13;75.63;98692.25;2619674;54;20106;-63
2022/02/06 08:31:14;;;;;;;4.50;1.70;;;;;;;5.14;75.67;98692.09;2618734;39;20517;-63
2022/02/06 08:33:46;;;;;;;5.00;2.47;;;;;;;5.18;75.38;98693.44;2617924;54;20046;-64
2022/02/06 08:36:15;;;;;;;6.80;2.33;;;;;;;5.20;75.33;98680.16;2617972;54;20042;-64
2022/02/06 08:39:05;;;;;;;8.60;1.63;;;;;;;5.26;74.79;98670.81;2620160;54;20033;-62
2022/02/06 08:41:35;;;;;;;5.32;2.20;;;;;;;5.27;75.08;98675.09;2619825;54;20038;-62
2022/02/06 08:44:05;;;;;;;3.55;2.08;;;;;;;5.31;75.03;98658.06;2618526;54;20118;-63
2022/02/06 08:46:35;;;;;;;5.10;2.05;;;;;;;5.38;74.60;98678.19;2623388;54;20065;-63
2022/02/06 08:49:07;;;;;;;6.47;2.13;;;;;;;5.37;74.83;98655.59;2621057;54;20038;-62
2022/02/06 08:51:37;;;;;;;4.18;1.92;;;;;;;5.31;74.93;98671.16;2619142;54;20037;-63
2022/02/06 08:54:06;;;;;;;5.40;2.08;;;;;;;5.32;75.25;98657.88;2618537;54;20114;-63
2022/02/06 08:56:39;;;;;;;6.18;2.17;;;;;;;5.32;75.48;98626.44;2618926;54;20090;-64
2022/02/06 08:59:08;;;;;;;4.35;1.55;;;;;;;5.29;75.48;98631.19;2618750;54;20049;-63
2022/02/06 09:01:39;;;;;;;5.10;1.60;;;;;;;5.26;75.39;98634.94;2618821;54;20093;-65
2022/02/06 09:04:11;;;;;;;4.88;2.08;;;;;;;5.25;75.37;98629.88;2618483;54;20605;-63
2022/02/06 09:06:41;;;;;;;6.15;2.22;;;;;;;5.26;75.93;98592.19;2619008;54;20059;-63
2022/02/06 09:09:13;;;;;;;3.42;1.67;;;;;;;5.28;75.37;98608.56;2619687;54;20042;-63
2022/02/06 09:11:42;;;;;;;8.13;2.08;;;;;;;5.24;75.43;98579.25;2619710;54;20562;-66
2022/02/06 09:14:13;;;;;;;5.43;2.05;;;;;;;5.28;75.60;98583.19;2619445;54;20054;-64
2022/02/06 09:16:43;;;;;;;5.15;1.80;;;;;;;5.35;75.17;98585.97;2619676;54;20050;-64
2022/02/06 09:19:15;;;;;;;7.60;1.83;;;;;;;5.39;75.36;98580.25;2619852;31;20544;-62
2022/02/06 09:21:45;;;;;;;4.00;1.40;;;;;;;5.44;75.24;98572.69;2618993;54;20159;-65
2022/02/06 09:24:14;;;;;;;3.80;2.10;;;;;;;5.47;75.51;98561.88;2618678;54;20065;-62
2022/02/06 09:26:44;;;;;;;3.90;1.88;;;;;;;5.44;75.59;98571.88;2619172;54;20085;-63
2022/02/06 09:29:14;;;;;;;5.72;1.80;;;;;;;5.44;75.24;98543.84;2621313;54;20027;-63
2022/02/06 09:31:43;;;;;;;4.32;1.60;;;;;;;5.44;75.49;98556.16;2622158;39;20478;-64
2022/02/06 09:36:42;;;;;;;2.92;1.50;;;;;;;5.43;75.20;98557.94;2619444;54;20030;-64
2022/02/06 09:39:14;;;;;;;5.90;1.88;;;;;;;5.49;75.57;98550.41;2619083;54;20113;-66
2022/02/06 09:41:46;;;;;;;5.70;1.95;;;;;;;5.51;75.53;98538.78;2618527;54;20133;-64
2022/02/06 09:44:16;;;;;;;9.02;4.25;;;;;;;5.47;75.18;98533.03;2618724;54;20042;-62
2022/02/06 09:46:52;;;;;;;3.58;1.90;;;;;;;5.50;75.48;98533.69;2618978;54;20134;-63
2022/02/06 09:49:25;;;;;;;3.83;1.80;;;;;;;5.61;75.03;98528.09;2618529;46;20047;-64
2022/02/06 09:51:56;;;;;;;3.00;1.35;;;;;;;5.66;74.95;98507.41;2618721;54;20030;-64
2022/02/06 09:54:29;;;;;;;3.78;1.80;;;;;;;5.65;75.20;98508.41;2618594;54;20106;-64
2022/02/06 09:57:00;;;;;;;7.63;2.13;;;;;;;5.66;75.51;98504.78;2618789;54;20050;-64
2022/02/06 09:59:34;;;;;;;10.57;3.03;;;;;;;5.71;75.15;98507.72;2618853;54;20067;-63
2022/02/06 10:02:04;;;;;;;4.25;1.77;;;;;;;5.80;75.02;98511.16;2619031;54;20038;-64
2022/02/06 10:04:39;;;;;;;4.00;1.70;;;;;;;5.78;75.21;98513.94;2618457;54;20046;-64
2022/02/06 10:07:11;;;;;;;3.60;1.50;;;;;;;5.76;75.21;98513.31;2618514;47;20038;-64
2022/02/06 10:09:46;;;;;;;3.40;2.33;;;;;;;5.66;75.07;98510.03;2619386;39;20426;-64
2022/02/06 10:12:17;;;;;;;6.43;2.33;;;;;;;5.65;75.26;98485.63;2618863;39;20363;-64
2022/02/06 10:14:47;;;;;;;5.43;1.60;;;;;;;5.71;74.77;98508.56;2618477;54;20047;-63
2022/02/06 10:17:17;;;;;;;6.72;2.08;;;;;;;5.77;74.97;98496.56;2618521;54;20059;-65
2022/02/06 10:19:56;;;;;;;6.57;2.00;;;;;;;5.83;75.01;98480.16;2620562;54;20585;-63
2022/02/06 10:22:33;;;;;;;7.95;1.73;;;;;;;5.78;75.15;98494.75;2622627;54;20527;-64
2022/02/06 10:25:06;;;;;;;5.32;1.80;;;;;;;5.85;74.81;98493.09;2623935;39;20474;-65
2022/02/06 10:27:55;;;;;;;6.35;2.17;;;;;;;5.90;75.26;98472.41;2623153;54;20037;-64
2022/02/06 10:30:39;;;;;;;3.38;1.48;;;;;;;5.94;75.29;98461.44;2622969;54;20058;-64
2022/02/06 10:33:12;;;;;;;3.80;1.77;;;;;;;5.95;75.17;98473.56;2623467;54;20562;-64
2022/02/06 10:35:45;;;;;;;5.95;1.70;;;;;;;5.92;75.74;98454.75;2623094;54;20038;-64
2022/02/06 10:38:21;;;;;;;4.05;1.70;;;;;;;6.05;76.00;98457.63;2622404;54;20066;-64
2022/02/06 10:41:07;;;;;;;6.50;2.35;;;;;;;6.00;75.85;98446.00;2621967;54;20030;-63
2022/02/06 10:43:38;;;;;;;5.90;2.00;;;;;;;5.94;76.06;98445.69;2620564;39;20407;-64
2022/02/06 10:46:11;;;;;;;3.10;1.63;;;;;;;5.93;76.35;98445.88;2618019;54;20030;-64
2022/02/06 10:48:48;;;;;;;5.75;1.65;;;;;;;5.94;77.05;98448.31;2618352;54;20038;-64
2022/02/06 10:51:39;;;;;;;4.38;1.77;;;;;;;5.86;76.86;98422.09;2619698;39;20395;-64
2022/02/06 10:54:11;;;;;;;4.35;1.50;;;;;;;5.85;77.48;98422.28;2621344;54;20038;-65
2022/02/06 10:57:00;;;;;;;2.03;1.65;;;;;;;5.85;77.13;98415.22;2620317;54;20038;-65
2022/02/06 10:59:30;;;;;;;5.68;1.60;;;;;;;5.92;77.09;98425.88;2620272;47;20041;-64
2022/02/06 11:02:00;;;;;;;4.20;1.40;;;;;;;5.79;76.98;98408.03;2619745;54;20086;-65
2022/02/06 11:04:33;;;;;;;4.05;1.50;;;;;;;5.80;77.28;98393.13;2618499;54;20074;-65
2022/02/06 11:07:23;;;;;;;4.90;1.70;;;;;;;5.79;77.54;98376.53;2618831;39;20418;-65
2022/02/06 11:09:53;;;;;;;2.95;1.42;;;;;;;5.77;78.76;98370.66;2618009;46;20529;-64
2022/02/06 11:12:23;;;;;;;5.07;1.55;;;;;;;5.74;78.47;98378.88;2618480;54;20573;-64
2022/02/06 11:15:00;;;;;;;2.22;1.00;;;;;;;5.68;78.97;98380.41;2616465;47;20041;-68
2022/02/06 11:17:33;;;;;;;5.32;1.55;;;;;;;5.64;78.59;98376.47;2618403;31;20518;-67
2022/02/06 11:20:06;;;;;;;3.28;1.33;;;;;;;5.62;78.80;98359.28;2617947;39;20557;-68
2022/02/06 11:22:40;;;;;;;3.28;1.40;;;;;;;5.61;79.48;98358.47;2617708;54;20026;-67
2022/02/06 11:25:10;;;;;;;1.45;1.20;;;;;;;5.56;78.78;98346.88;2617436;54;20082;-67
2022/02/06 11:27:39;;;;;;;3.00;1.30;;;;;;;5.49;79.98;98341.47;2617092;47;20129;-67
2022/02/06 11:30:10;;;;;;;3.60;1.23;;;;;;;5.45;80.14;98338.38;2618448;31;20548;-68
2022/02/06 11:32:42;;;;;;;2.58;1.23;;;;;;;5.39;80.40;98349.56;2617600;54;20026;-68
2022/02/06 11:35:16;;;;;;;1.08;0.98;;;;;;;5.34;80.36;98338.75;2617335;54;20094;-68
2022/02/06 11:43:55;;;;;;;1.80;1.42;;;;;;;5.31;81.33;98310.28;2617641;54;20081;-67
2022/02/06 11:46:36;;;;;;;1.67;1.30;;;;;;;5.26;81.34;98309.13;2617707;54;20159;-67
2022/02/06 11:49:10;;;;;;;2.92;1.10;;;;;;;5.19;82.27;98296.72;2617624;54;20038;-68
2022/02/06 11:51:53;;;;;;;2.97;1.23;;;;;;;5.21;82.83;98302.59;2618594;39;20451;-67
2022/02/06 11:54:36;;;;;;;2.03;1.10;;;;;;;5.19;81.76;98298.53;2617542;54;20053;-67
2022/02/06 11:57:27;;;;;;;3.92;1.00;;;;;;;5.14;82.00;98293.81;2617775;54;20041;-67
2022/02/06 12:00:22;;;;;;;2.78;1.40;;;;;;;5.12;81.83;98277.44;2617329;47;20034;-68
2022/02/06 12:02:53;;;;;;;1.77;0.80;;;;;;;5.12;81.59;98266.94;2618603;39;20721;-66
2022/02/06 12:05:26;;;;;;;1.40;1.00;;;;;;;5.05;82.31;98266.00;2617404;54;20031;-65
2022/02/06 12:07:58;;;;;;;2.20;1.47;;;;;;;4.99;82.81;98265.88;2617745;54;20105;-66
2022/02/06 12:11:03;;;;;;;2.50;1.30;;;;;;;5.04;82.95;98258.31;2617486;39;20303;-67
2022/02/06 12:13:37;;;;;;;1.58;1.20;;;;;;;5.04;82.04;98245.22;2617007;47;20034;-66
2022/02/06 12:16:08;;;;;;;1.13;1.02;;;;;;;4.99;82.54;98239.69;2617731;54;20026;-66
2022/02/06 12:18:39;;;;;;;5.00;2.10;;;;;;;4.88;82.33;98241.66;2617108;54;20022;-66
2022/02/06 12:21:14;;;;;;;2.42;1.23;;;;;;;4.88;82.73;98233.00;2618183;54;20045;-66
2022/02/06 12:23:46;;;;;;;2.25;0.90;;;;;;;4.85;82.32;98215.81;2618732;54;20030;-66
2022/02/06 12:26:43;;;;;;;3.05;0.93;;;;;;;4.85;82.95;98215.00;2618237;47;20074;-66
2022/02/06 12:29:19;;;;;;;2.95;1.83;;;;;;;4.81;82.99;98209.28;2618767;54;20086;-67
2022/02/06 12:31:54;;;;;;;1.58;1.48;;;;;;;4.77;82.94;98197.50;2617942;54;20042;-66
2022/02/06 12:37:27;;;;;;;3.47;0.93;;;;;;;4.66;83.06;98226.72;2617832;54;20042;-67
2022/02/06 12:39:59;;;;;;;1.63;1.23;;;;;;;4.60;83.36;98199.38;2618171;54;20038;-67
2022/02/06 12:42:35;;;;;;;2.83;1.00;;;;;;;4.60;83.32;98196.78;2624754;54;20042;-67
2022/02/06 12:45:09;;;;;;;1.42;1.30;;;;;;;4.60;83.80;98181.06;2625348;54;20051;-66
2022/02/06 12:47:48;;;;;;;1.38;1.02;;;;;;;4.60;84.34;98170.59;2624785;54;20030;-66
2022/02/06 12:50:20;;;;;;;3.20;1.73;;;;;;;4.63;83.45;98179.91;2624984;54;20042;-67
2022/02/06 12:52:50;;;;;;;1.80;1.20;;;;;;;4.63;83.87;98183.34;2625242;54;20059;-67
2022/02/06 12:55:26;;;;;;;1.77;1.27;;;;;;;4.66;84.43;98164.69;2624730;54;20030;-69
2022/02/06 12:57:56;;;;;;;4.60;2.28;;;;;;;4.75;84.80;98156.78;2624505;54;20042;-70
2022/02/06 13:00:37;;;;;;;2.20;1.58;;;;;;;4.78;84.24;98159.09;2622387;54;20050;-67
2022/02/06 13:03:22;;;;;;;1.85;1.23;;;;;;;4.75;83.41;98146.31;2618354;54;20604;-68
2022/02/06 13:05:54;;;;;;;1.67;1.40;;;;;;;4.75;83.12;98152.38;2617957;54;20063;-65
2022/02/06 13:08:24;;;;;;;0.80;0.80;;;;;;;4.74;83.63;98137.66;2618444;54;20107;-69
2022/02/06 13:10:58;;;;;;;5.47;2.20;;;;;;;4.71;83.20;98130.94;2618258;54;20557;-68
2022/02/06 13:13:35;;;;;;;1.75;1.20;;;;;;;4.69;82.88;98126.84;2617593;47;20027;-66
2022/02/06 13:16:36;;;;;;;2.05;0.82;;;;;;;4.66;83.21;98116.75;2618060;54;20031;-68
2022/02/06 13:19:29;;;;;;;1.98;0.90;;;;;;;4.64;82.96;98126.56;2618124;54;20561;-68
2022/02/06 13:25:17;;;;;;;2.35;1.20;;;;;;;4.63;82.77;98106.63;2617084;47;20027;-66
2022/02/06 13:28:08;;;;;;;1.33;1.20;;;;;;;4.57;83.56;98096.81;2617568;46;20034;-67
2022/02/06 13:33:43;;;;;;;0.88;0.88;;;;;;;4.57;83.47;98089.81;2619925;54;20086;-67
2022/02/06 13:36:28;;;;;;;2.25;0.82;;;;;;;4.57;83.96;98079.34;2620617;54;20558;-67
2022/02/06 13:39:01;;;;;;;0.95;0.77;;;;;;;4.56;83.33;98069.81;2621059;54;20035;-68
2022/02/06 13:41:32;;;;;;;3.03;0.90;;;;;;;4.54;83.92;98052.69;2621511;54;20031;-67
2022/02/06 13:44:02;;;;;;;0.93;0.80;;;;;;;4.51;83.90;98072.16;2621835;54;20038;-66
2022/02/06 13:46:36;;;;;;;0.82;0.73;;;;;;;4.50;84.72;98065.28;2621813;54;20037;-66
2022/02/06 13:49:09;;;;;;;0.85;0.73;;;;;;;4.47;84.36;98055.16;2620953;54;20058;-67
2022/02/06 13:51:46;;;;;;;1.60;0.80;;;;;;;4.45;83.58;98025.75;2621008;54;20088;-68
2022/02/06 13:54:18;;;;;;;1.73;0.77;;;;;;;4.42;83.66;98021.66;2619601;54;20542;-67